createdAt,value
2023-05-17T00:01:49.980Z,99.90
2023-05-17T00:04:18.160Z,99.90
2023-05-17T00:06:46.314Z,99.90
2023-05-17T00:09:14.433Z,99.90
2023-05-17T00:11:42.622Z,99.90
2023-05-17T00:14:11.718Z,99.90
2023-05-17T00:16:40.195Z,99.90
2023-05-17T00:19:10.567Z,99.90
2023-05-17T00:21:39.177Z,99.90
2023-05-17T00:24:07.838Z,99.90
2023-05-17T00:26:36.627Z,99.90
2023-05-17T00:29:04.818Z,99.90
2023-05-17T00:31:32.986Z,99.90
2023-05-17T00:34:01.248Z,99.90
2023-05-17T00:36:31.040Z,99.90
2023-05-17T00:38:59.195Z,99.90
2023-05-17T00:41:27.452Z,99.90
2023-05-17T00:43:55.608Z,99.90
2023-05-17T00:46:23.770Z,99.90
2023-05-17T00:48:52.131Z,99.90
2023-05-17T00:51:22.145Z,99.90
2023-05-17T00:53:51.900Z,99.90
2023-05-17T00:56:20.095Z,99.90
2023-05-17T00:58:48.592Z,99.90
2023-05-17T01:01:16.778Z,99.90
2023-05-17T01:03:44.988Z,99.90
2023-05-17T01:06:13.239Z,99.90
2023-05-17T01:08:41.510Z,99.90
2023-05-17T01:11:19.923Z,99.90
2023-05-17T01:13:56.673Z,99.90
2023-05-17T01:16:31.222Z,99.90
2023-05-17T01:19:09.016Z,99.90
2023-05-17T01:21:47.692Z,99.90
2023-05-17T01:24:27.255Z,99.90
2023-05-17T01:26:57.908Z,99.90
2023-05-17T01:29:29.871Z,99.90
2023-05-17T01:32:00.779Z,99.90
2023-05-17T01:34:30.111Z,99.90
2023-05-17T01:36:58.684Z,99.90
2023-05-17T01:39:27.754Z,99.90
2023-05-17T01:42:14.861Z,99.90
2023-05-17T01:44:51.591Z,99.90
2023-05-17T01:47:28.459Z,99.90
2023-05-17T01:50:00.256Z,99.90
2023-05-17T01:52:33.054Z,99.90
2023-05-17T01:55:10.146Z,99.90
2023-05-17T01:57:41.303Z,99.90
2023-05-17T02:00:12.592Z,99.90
2023-05-17T02:02:40.884Z,99.90
2023-05-17T02:05:09.783Z,99.90
2023-05-17T02:07:39.493Z,99.90
2023-05-17T02:10:08.874Z,99.90
2023-05-17T02:12:37.038Z,99.90
2023-05-17T02:15:08.328Z,99.90
2023-05-17T02:17:36.636Z,99.90
2023-05-17T02:20:05.700Z,99.90
2023-05-17T02:22:33.873Z,99.90
2023-05-17T02:25:02.064Z,99.90
2023-05-17T02:27:30.281Z,99.90
2023-05-17T02:29:58.651Z,99.90
2023-05-17T02:32:28.268Z,99.90
2023-05-17T02:34:56.562Z,99.90
2023-05-17T02:37:24.726Z,99.90
2023-05-17T02:39:53.038Z,99.90
2023-05-17T02:42:21.166Z,99.90
2023-05-17T02:44:52.940Z,99.90
2023-05-17T02:47:22.145Z,99.90
2023-05-17T02:49:51.738Z,99.90
2023-05-17T02:52:19.886Z,99.90
2023-05-17T02:54:48.123Z,99.90
2023-05-17T02:57:16.287Z,99.90
2023-05-17T02:59:44.476Z,99.90
2023-05-17T03:02:12.877Z,99.90
2023-05-17T03:04:41.101Z,99.90
2023-05-17T03:07:10.940Z,99.90
2023-05-17T03:09:39.068Z,99.90
2023-05-17T03:12:08.375Z,99.90
2023-05-17T03:14:36.560Z,99.90
2023-05-17T03:17:04.809Z,99.90
2023-05-17T03:19:32.985Z,99.90
2023-05-17T03:22:01.164Z,99.90
2023-05-17T03:24:30.825Z,99.90
2023-05-17T03:26:58.979Z,99.90
2023-05-17T03:29:27.107Z,99.90
2023-05-17T03:31:55.215Z,99.90
2023-05-17T03:34:23.388Z,99.90
2023-05-17T03:36:51.579Z,99.90
2023-05-17T03:39:19.728Z,99.90
2023-05-17T03:41:49.318Z,99.90
2023-05-17T03:44:17.543Z,99.90
2023-05-17T03:46:46.256Z,99.90
2023-05-17T03:49:14.601Z,99.90
2023-05-17T03:51:42.816Z,99.90
2023-05-17T03:54:11.308Z,99.90
2023-05-17T03:56:39.450Z,99.90
2023-05-17T03:59:09.150Z,99.90
2023-05-17T04:01:37.309Z,99.90
2023-05-17T04:04:06.057Z,99.90
2023-05-17T04:06:34.321Z,99.90
2023-05-17T04:09:02.513Z,99.90
2023-05-17T04:11:30.816Z,99.90
2023-05-17T04:13:59.223Z,99.90
2023-05-17T04:16:28.873Z,99.90
2023-05-17T04:18:57.111Z,99.90
2023-05-17T04:21:25.514Z,99.90
2023-05-17T04:23:53.902Z,99.90
2023-05-17T04:26:22.204Z,99.90
2023-05-17T04:28:50.388Z,99.90
2023-05-17T04:31:19.093Z,99.90
2023-05-17T04:33:48.759Z,99.90
2023-05-17T04:36:17.628Z,99.90
2023-05-17T04:38:46.449Z,99.90
2023-05-17T04:41:14.728Z,99.90
2023-05-17T04:43:43.051Z,99.90
2023-05-17T04:46:11.618Z,99.90
2023-05-17T04:48:39.913Z,99.90
2023-05-17T04:51:09.648Z,99.90
2023-05-17T04:53:37.887Z,99.90
2023-05-17T04:56:06.934Z,99.90
2023-05-17T04:58:35.191Z,99.90
2023-05-17T05:01:03.504Z,99.90
2023-05-17T05:03:31.882Z,99.90
2023-05-17T05:06:00.110Z,99.90
2023-05-17T05:08:29.694Z,99.90
2023-05-17T05:10:57.942Z,99.90
2023-05-17T05:13:26.150Z,99.90
2023-05-17T05:15:54.305Z,99.90
2023-05-17T05:18:22.553Z,99.90
2023-05-17T05:20:50.949Z,99.90
2023-05-17T05:23:19.251Z,99.90
2023-05-17T05:25:48.881Z,99.90
2023-05-17T05:28:17.230Z,99.90
2023-05-17T05:30:45.568Z,99.90
2023-05-17T05:33:13.866Z,99.90
2023-05-17T05:35:42.084Z,99.90
2023-05-17T05:38:10.278Z,99.90
2023-05-17T05:40:38.538Z,99.90
2023-05-17T05:43:08.154Z,99.90
2023-05-17T05:45:36.331Z,99.90
2023-05-17T05:48:05.609Z,99.90
2023-05-17T05:50:35.365Z,99.90
2023-05-17T05:53:17.336Z,99.90
2023-05-17T05:55:47.356Z,99.90
2023-05-17T05:58:16.985Z,99.90
2023-05-17T06:00:45.152Z,99.90
2023-05-17T06:03:13.402Z,99.90
2023-05-17T06:05:41.961Z,99.90
2023-05-17T06:08:10.263Z,99.90
2023-05-17T06:10:38.455Z,99.90
2023-05-17T06:13:06.720Z,99.90
2023-05-17T06:15:37.209Z,99.90
2023-05-17T06:18:05.962Z,99.90
2023-05-17T06:20:34.251Z,99.90
2023-05-17T06:23:05.042Z,99.90
2023-05-17T06:25:33.318Z,99.90
2023-05-17T06:28:02.868Z,99.90
2023-05-17T06:30:31.386Z,99.90
2023-05-17T06:33:01.437Z,99.90
2023-05-17T06:35:35.260Z,99.90
2023-05-17T06:38:08.832Z,99.90
2023-05-17T06:40:37.373Z,99.90
2023-05-17T06:43:06.278Z,99.90
2023-05-17T06:45:34.484Z,99.90
2023-05-17T06:48:04.245Z,99.90
2023-05-17T06:50:32.835Z,99.90
2023-05-17T06:53:01.095Z,99.90
2023-05-17T06:55:31.560Z,99.90
2023-05-17T06:58:00.781Z,99.90
2023-05-17T07:00:29.462Z,99.90
2023-05-17T07:02:57.940Z,99.90
2023-05-17T07:05:29.403Z,99.90
2023-05-17T07:07:58.059Z,99.90
2023-05-17T07:10:26.328Z,99.90
2023-05-17T07:12:54.617Z,99.90
2023-05-17T07:15:22.953Z,99.90
2023-05-17T07:17:51.218Z,99.90
2023-05-17T07:20:19.410Z,99.90
2023-05-17T07:22:49.291Z,99.90
2023-05-17T07:25:18.940Z,99.90
2023-05-17T07:27:47.167Z,99.90
2023-05-17T07:30:15.678Z,99.90
2023-05-17T07:32:43.873Z,99.90
2023-05-17T07:35:12.170Z,99.90
2023-05-17T07:37:40.448Z,99.90
2023-05-17T07:40:11.834Z,99.90
2023-05-17T07:42:40.048Z,99.90
2023-05-17T07:45:09.732Z,99.90
2023-05-17T07:47:37.985Z,99.90
2023-05-17T07:50:07.273Z,99.90
2023-05-17T07:52:35.471Z,99.90
2023-05-17T07:55:05.813Z,99.90
2023-05-17T07:57:35.709Z,99.90
2023-05-17T08:00:04.088Z,99.90
2023-05-17T08:02:32.266Z,99.90
2023-05-17T08:05:00.536Z,99.90
2023-05-17T08:07:28.725Z,99.90
2023-05-17T08:09:56.928Z,99.90
2023-05-17T08:12:25.449Z,99.90
2023-05-17T08:14:55.014Z,99.90
2023-05-17T08:17:23.424Z,99.90
2023-05-17T08:19:51.568Z,99.90
2023-05-17T08:22:20.342Z,99.90
2023-05-17T08:24:48.486Z,99.90
2023-05-17T08:27:16.984Z,99.90
2023-05-17T08:29:45.140Z,99.90
2023-05-17T08:32:14.677Z,99.90
2023-05-17T08:34:42.814Z,99.90
2023-05-17T08:37:12.558Z,99.90
2023-05-17T08:39:40.855Z,99.90
2023-05-17T08:42:09.664Z,99.90
2023-05-17T08:44:38.754Z,99.90
2023-05-17T08:47:09.323Z,99.90
2023-05-17T08:49:39.527Z,99.90
2023-05-17T08:52:10.425Z,99.90
2023-05-17T08:54:38.693Z,99.90
2023-05-17T08:57:07.874Z,99.90
2023-05-17T08:59:37.353Z,99.90
2023-05-17T09:02:07.348Z,99.90
2023-05-17T09:04:35.526Z,99.90
2023-05-17T09:07:05.471Z,99.90
2023-05-17T09:09:34.282Z,99.90
2023-05-17T09:12:03.389Z,99.90
2023-05-17T09:14:35.984Z,99.90
2023-05-17T09:17:04.224Z,99.90
2023-05-17T09:19:32.883Z,99.90
2023-05-17T09:22:02.598Z,99.90
2023-05-17T09:24:32.342Z,99.90
2023-05-17T09:27:04.347Z,99.90
2023-05-17T09:29:33.521Z,99.90
2023-05-17T09:32:14.422Z,99.90
2023-05-17T09:34:42.990Z,99.90
2023-05-17T09:37:15.325Z,99.90
2023-05-17T09:39:46.175Z,99.90
2023-05-17T09:42:14.982Z,99.90
2023-05-17T09:44:48.726Z,99.90
2023-05-17T09:47:27.150Z,99.90
2023-05-17T09:49:57.653Z,99.90
2023-05-17T09:52:27.040Z,99.90
2023-05-17T09:54:57.669Z,94.60
2023-05-17T09:57:28.043Z,94.20
2023-05-17T09:59:58.097Z,90.60
2023-05-17T10:02:32.743Z,93.00
2023-05-17T10:05:05.391Z,91.70
2023-05-17T10:07:34.212Z,92.90
2023-05-17T10:10:05.185Z,91.80
2023-05-17T10:12:35.172Z,93.00
2023-05-17T10:15:05.091Z,96.10
2023-05-17T10:17:38.853Z,94.00
2023-05-17T10:20:10.308Z,94.60
2023-05-17T10:22:39.477Z,94.20
2023-05-17T10:25:10.230Z,92.50
2023-05-17T10:27:38.416Z,91.10
2023-05-17T10:30:10.142Z,90.80
2023-05-17T10:32:39.051Z,90.70
2023-05-17T10:35:11.904Z,90.10
2023-05-17T10:37:41.808Z,93.00
2023-05-17T10:40:14.337Z,91.60
2023-05-17T10:42:46.328Z,90.60
2023-05-17T10:45:14.901Z,89.40
2023-05-17T10:47:43.856Z,91.80
2023-05-17T10:50:15.109Z,89.00
2023-05-17T10:52:48.615Z,91.60
2023-05-17T10:55:21.899Z,90.50
2023-05-17T10:58:21.045Z,91.00
2023-05-17T11:00:53.199Z,93.90
2023-05-17T11:03:23.664Z,89.60
2023-05-17T11:06:23.447Z,90.00
2023-05-17T11:09:08.954Z,90.80
2023-05-17T11:11:38.582Z,91.40
2023-05-17T11:14:08.584Z,90.90
2023-05-17T11:16:39.119Z,92.70
2023-05-17T11:19:12.273Z,94.70
2023-05-17T11:21:47.734Z,93.40
2023-05-17T11:24:28.005Z,93.40
2023-05-17T11:27:00.927Z,90.80
2023-05-17T11:29:31.455Z,91.70
2023-05-17T11:31:59.814Z,89.60
2023-05-17T11:34:29.122Z,90.80
2023-05-17T11:36:57.732Z,92.00
2023-05-17T11:39:26.962Z,93.00
2023-05-17T11:41:58.175Z,92.00
2023-05-17T11:44:30.302Z,91.10
2023-05-17T11:47:05.919Z,91.50
2023-05-17T11:49:36.651Z,91.20
2023-05-17T11:52:06.432Z,90.20
2023-05-17T11:54:35.652Z,86.50
2023-05-17T11:57:05.800Z,87.40
2023-05-17T11:59:39.868Z,87.50
2023-05-17T12:02:08.369Z,86.80
2023-05-17T12:04:37.758Z,85.30
2023-05-17T12:07:06.519Z,87.50
2023-05-17T12:09:34.894Z,90.30
2023-05-17T12:12:06.898Z,86.30
2023-05-17T12:14:35.129Z,91.00
2023-05-17T12:17:07.217Z,83.90
2023-05-17T12:19:35.567Z,87.60
2023-05-17T12:22:12.642Z,86.40
2023-05-17T12:24:42.979Z,85.20
2023-05-17T12:27:12.829Z,84.30
2023-05-17T12:29:41.077Z,81.90
2023-05-17T12:32:10.387Z,87.80
2023-05-17T12:34:38.990Z,81.30
2023-05-17T12:37:10.509Z,76.30
2023-05-17T12:39:39.277Z,75.60
2023-05-17T12:42:08.540Z,76.50
2023-05-17T12:44:38.180Z,76.80
2023-05-17T12:47:06.658Z,81.50
2023-05-17T12:49:40.109Z,72.50
2023-05-17T12:52:08.839Z,77.40
2023-05-17T12:54:37.189Z,75.80
2023-05-17T12:57:13.852Z,79.70
2023-05-17T12:59:50.640Z,79.00
2023-05-17T13:02:20.518Z,81.60
2023-05-17T13:04:48.879Z,77.40
2023-05-17T13:07:23.905Z,82.20
2023-05-17T13:09:52.387Z,79.30
2023-05-17T13:12:22.292Z,77.00
2023-05-17T13:14:54.665Z,75.10
2023-05-17T13:17:26.916Z,78.40
2023-05-17T13:19:57.359Z,82.00
2023-05-17T13:22:26.191Z,82.90
2023-05-17T13:24:54.999Z,81.70
2023-05-17T13:27:23.195Z,83.20
2023-05-17T13:29:52.776Z,86.30
2023-05-17T13:32:23.186Z,79.30
2023-05-17T13:34:51.556Z,80.80
2023-05-17T13:37:21.124Z,76.30
2023-05-17T13:39:49.546Z,73.00
2023-05-17T13:42:19.053Z,80.50
2023-05-17T13:44:47.209Z,83.50
2023-05-17T13:47:17.156Z,82.10
2023-05-17T13:49:45.315Z,82.50
2023-05-17T13:52:13.868Z,81.90
2023-05-17T13:54:42.120Z,74.70
2023-05-17T13:57:10.295Z,76.10
2023-05-17T13:59:39.264Z,73.50
2023-05-17T14:02:07.625Z,77.40
2023-05-17T14:04:37.169Z,78.30
2023-05-17T14:07:05.595Z,78.40
2023-05-17T14:09:34.635Z,80.30
2023-05-17T14:12:03.264Z,79.50
2023-05-17T14:14:31.836Z,81.10
2023-05-17T14:17:01.434Z,80.50
2023-05-17T14:19:29.877Z,80.90
2023-05-17T14:21:59.535Z,74.90
2023-05-17T14:24:27.796Z,76.80
2023-05-17T14:26:56.518Z,75.90
2023-05-17T14:29:24.720Z,77.40
2023-05-17T14:31:52.968Z,79.80
2023-05-17T14:34:21.208Z,73.90
2023-05-17T14:36:49.421Z,76.00
2023-05-17T14:39:18.954Z,77.90
2023-05-17T14:41:47.102Z,75.80
2023-05-17T14:44:15.611Z,77.00
2023-05-17T14:46:43.789Z,76.60
2023-05-17T14:49:12.135Z,75.70
2023-05-17T14:51:40.413Z,74.40
2023-05-17T14:54:08.586Z,73.40
2023-05-17T14:56:38.226Z,71.10
2023-05-17T14:59:06.411Z,69.00
2023-05-17T15:01:34.566Z,68.40
2023-05-17T15:04:02.844Z,67.80
2023-05-17T15:06:32.372Z,69.00
2023-05-17T15:09:02.309Z,73.20
2023-05-17T15:11:31.254Z,73.00
2023-05-17T15:14:00.790Z,73.40
2023-05-17T15:16:29.084Z,69.10
2023-05-17T15:18:57.889Z,69.50
2023-05-17T15:21:26.519Z,67.60
2023-05-17T15:23:54.681Z,67.60
2023-05-17T15:26:23.016Z,70.50
2023-05-17T15:28:51.408Z,70.20
2023-05-17T15:31:21.253Z,74.40
2023-05-17T15:33:49.410Z,72.00
2023-05-17T15:36:17.675Z,72.40
2023-05-17T15:38:46.517Z,74.10
2023-05-17T15:41:16.814Z,71.30
2023-05-17T15:43:46.739Z,73.20
2023-05-17T15:46:15.015Z,72.70
2023-05-17T15:48:44.627Z,73.50
2023-05-17T15:51:13.210Z,76.40
2023-05-17T15:53:41.352Z,76.10
2023-05-17T15:56:10.245Z,71.90
2023-05-17T15:58:38.464Z,68.60
2023-05-17T16:01:07.468Z,66.90
2023-05-17T16:03:35.797Z,73.20
2023-05-17T16:06:05.751Z,74.20
2023-05-17T16:08:34.133Z,76.00
2023-05-17T16:11:02.774Z,71.40
2023-05-17T16:13:31.151Z,75.10
2023-05-17T16:16:00.400Z,72.80
2023-05-17T16:18:30.128Z,77.20
2023-05-17T16:20:59.788Z,79.50
2023-05-17T16:23:29.404Z,74.70
2023-05-17T16:25:58.027Z,69.70
2023-05-17T16:28:26.432Z,66.70
2023-05-17T16:30:54.754Z,72.40
2023-05-17T16:33:23.110Z,74.10
2023-05-17T16:35:51.578Z,75.90
2023-05-17T16:38:19.764Z,73.20
2023-05-17T16:40:49.370Z,75.60
2023-05-17T16:43:17.597Z,77.90
2023-05-17T16:45:46.342Z,74.90
2023-05-17T16:48:15.601Z,75.90
2023-05-17T16:50:44.123Z,73.40
2023-05-17T16:53:12.417Z,75.90
2023-05-17T16:55:41.768Z,76.70
2023-05-17T16:58:11.447Z,76.20
2023-05-17T17:00:39.749Z,74.00
2023-05-17T17:03:09.952Z,77.60
2023-05-17T17:05:38.348Z,72.60
2023-05-17T17:08:06.803Z,74.70
2023-05-17T17:10:35.997Z,79.60
2023-05-17T17:13:04.949Z,76.40
2023-05-17T17:15:34.529Z,72.30
2023-05-17T17:18:02.711Z,77.80
2023-05-17T17:20:31.222Z,80.00
2023-05-17T17:22:59.539Z,75.30
2023-05-17T17:25:28.106Z,76.00
2023-05-17T17:27:56.474Z,78.00
2023-05-17T17:30:24.653Z,80.20
2023-05-17T17:32:54.330Z,75.20
2023-05-17T17:35:22.710Z,73.90
2023-05-17T17:37:50.849Z,76.20
2023-05-17T17:40:21.718Z,81.40
2023-05-17T17:42:50.131Z,81.20
2023-05-17T17:45:18.732Z,79.70
2023-05-17T17:47:47.016Z,78.00
2023-05-17T17:50:16.636Z,77.70
2023-05-17T17:52:45.224Z,78.70
2023-05-17T17:55:13.707Z,78.20
2023-05-17T17:57:41.914Z,82.10
2023-05-17T18:00:12.070Z,74.30
2023-05-17T18:02:40.575Z,80.40
2023-05-17T18:05:09.546Z,82.80
2023-05-17T18:07:39.262Z,79.00
2023-05-17T18:10:08.429Z,85.60
2023-05-17T18:12:36.628Z,85.80
2023-05-17T18:15:05.112Z,83.70
2023-05-17T18:17:33.393Z,83.20
2023-05-17T18:20:01.730Z,86.00
2023-05-17T18:22:30.478Z,83.90
2023-05-17T18:25:00.609Z,83.40
2023-05-17T18:27:28.786Z,82.70
2023-05-17T18:29:56.946Z,78.20
2023-05-17T18:32:25.441Z,82.00
2023-05-17T18:34:55.074Z,80.40
2023-05-17T18:37:23.262Z,80.70
2023-05-17T18:39:51.478Z,77.90
2023-05-17T18:42:21.571Z,81.80
2023-05-17T18:44:53.494Z,85.30
2023-05-17T18:47:23.392Z,74.40
2023-05-17T18:49:52.198Z,75.70
2023-05-17T18:52:20.323Z,77.10
2023-05-17T18:54:49.872Z,74.20
2023-05-17T18:57:18.049Z,77.60
2023-05-17T18:59:47.732Z,72.90
2023-05-17T19:02:15.920Z,75.20
2023-05-17T19:04:45.177Z,72.50
2023-05-17T19:07:13.456Z,77.70
2023-05-17T19:09:42.490Z,76.60
2023-05-17T19:12:11.313Z,77.10
2023-05-17T19:14:40.245Z,76.60
2023-05-17T19:17:10.473Z,75.80
2023-05-17T19:19:38.898Z,73.30
2023-05-17T19:22:07.288Z,73.10
2023-05-17T19:24:35.755Z,76.30
2023-05-17T19:27:04.760Z,68.20
2023-05-17T19:29:33.213Z,71.60
2023-05-17T19:32:01.599Z,74.80
2023-05-17T19:34:31.292Z,71.00
2023-05-17T19:36:59.542Z,73.00
2023-05-17T19:39:27.791Z,75.00
2023-05-17T19:41:56.009Z,71.30
2023-05-17T19:44:24.167Z,68.70
2023-05-17T19:46:52.346Z,75.00
2023-05-17T19:49:20.589Z,73.80
2023-05-17T19:51:50.433Z,73.70
2023-05-17T19:54:18.643Z,67.70
2023-05-17T19:56:46.982Z,67.40
2023-05-17T19:59:15.685Z,70.20
2023-05-17T20:01:43.908Z,70.80
2023-05-17T20:04:12.268Z,66.30
2023-05-17T20:06:40.664Z,68.30
2023-05-17T20:09:10.228Z,67.20
2023-05-17T20:11:38.487Z,66.80
2023-05-17T20:14:09.663Z,72.70
2023-05-17T20:16:37.862Z,70.60
2023-05-17T20:19:06.120Z,65.90
2023-05-17T20:21:34.499Z,71.40
2023-05-17T20:24:04.003Z,67.50
2023-05-17T20:26:36.745Z,70.00
2023-05-17T20:29:06.078Z,71.60
2023-05-17T20:31:34.905Z,70.80
2023-05-17T20:34:03.453Z,73.00
2023-05-17T20:36:32.411Z,74.00
2023-05-17T20:39:00.720Z,77.10
2023-05-17T20:41:28.884Z,69.00
2023-05-17T20:43:58.409Z,77.10
2023-05-17T20:46:30.000Z,78.70
2023-05-17T20:48:58.303Z,79.20
2023-05-17T20:51:27.366Z,80.30
2023-05-17T20:53:55.578Z,79.00
2023-05-17T20:56:23.702Z,81.00
2023-05-17T20:58:51.869Z,82.50
2023-05-17T21:01:21.560Z,77.20
2023-05-17T21:03:51.501Z,78.30
2023-05-17T21:06:19.893Z,73.90
2023-05-17T21:08:48.172Z,77.80
2023-05-17T21:11:20.980Z,79.20
2023-05-17T21:13:49.268Z,77.40
2023-05-17T21:16:18.488Z,77.30
2023-05-17T21:18:48.038Z,79.90
2023-05-17T21:21:16.234Z,76.10
2023-05-17T21:23:44.435Z,80.30
2023-05-17T21:26:12.660Z,81.20
2023-05-17T21:28:40.904Z,76.60
2023-05-17T21:31:09.347Z,78.30
2023-05-17T21:33:37.540Z,77.60
2023-05-17T21:36:07.569Z,72.20
2023-05-17T21:38:35.719Z,75.70
2023-05-17T21:41:03.889Z,76.60
2023-05-17T21:43:32.045Z,76.80
2023-05-17T21:46:00.234Z,79.10
2023-05-17T21:48:28.766Z,79.00
2023-05-17T21:50:56.939Z,76.10
2023-05-17T21:53:26.571Z,76.70
2023-05-17T21:56:02.006Z,73.90
2023-05-17T21:58:31.888Z,74.10
2023-05-17T22:01:00.336Z,71.60
2023-05-17T22:03:28.683Z,68.10
2023-05-17T22:05:56.884Z,72.40
2023-05-17T22:08:26.470Z,79.00
2023-05-17T22:10:55.788Z,72.50
2023-05-17T22:13:26.398Z,76.30
2023-05-17T22:15:57.421Z,75.40
2023-05-17T22:18:26.901Z,71.30
2023-05-17T22:20:59.176Z,74.60
2023-05-17T22:23:29.222Z,75.50
2023-05-17T22:26:00.357Z,76.20
2023-05-17T22:28:28.914Z,74.00
2023-05-17T22:30:57.088Z,78.50
2023-05-17T22:33:25.283Z,75.90
2023-05-17T22:35:54.222Z,77.70
2023-05-17T22:38:23.672Z,71.40
2023-05-17T22:40:53.221Z,75.80
2023-05-17T22:43:22.308Z,71.50
2023-05-17T22:45:51.171Z,75.00
2023-05-17T22:48:20.762Z,76.30
2023-05-17T22:50:48.940Z,77.00
2023-05-17T22:53:18.490Z,74.20
2023-05-17T22:55:48.938Z,79.40
2023-05-17T22:58:18.882Z,77.10
2023-05-17T23:00:50.787Z,77.10
2023-05-17T23:03:19.375Z,77.80
2023-05-17T23:05:47.651Z,73.60
2023-05-17T23:08:16.471Z,75.10
2023-05-17T23:10:45.854Z,77.50
2023-05-17T23:13:14.085Z,79.20
2023-05-17T23:15:46.926Z,72.80
2023-05-17T23:18:16.073Z,72.90
2023-05-17T23:20:45.607Z,74.50
2023-05-17T23:23:15.530Z,76.20
2023-05-17T23:25:44.823Z,74.60
2023-05-17T23:28:14.507Z,73.20
2023-05-17T23:30:44.696Z,73.30
2023-05-17T23:33:12.950Z,67.90
2023-05-17T23:35:41.107Z,70.00
2023-05-17T23:38:09.261Z,66.60
2023-05-17T23:40:38.095Z,72.30
2023-05-17T23:43:08.628Z,71.40
2023-05-17T23:45:36.955Z,67.30
2023-05-17T23:48:09.829Z,69.00
2023-05-17T23:50:38.258Z,68.30
2023-05-17T23:53:06.426Z,66.10
2023-05-17T23:55:34.654Z,63.40
2023-05-17T23:58:02.851Z,69.20
